Time;durP1;ratioP1;P1;durP2;ratioP2;P2;SDS_P1;SDS_P2;PMS_P1;PMS_P2;Temp;Humidity;BMP_temperature;BMP_pressure;BME280_temperature;BME280_humidity;BME280_pressure;Samples;Min_cycle;Max_cycle;Signal;HPM_P1;HPM_P2
2022/03/27 00:01:29;;;;;;;28.65;5.78;;;1.90;99.90;;;;;;5055457;28;20408;-66
2022/03/27 00:03:55;;;;;;;32.30;6.75;;;1.80;99.90;;;;;;5055227;28;20079;-66
2022/03/27 00:06:21;;;;;;;33.63;5.25;;;1.70;99.90;;;;;;5054983;28;20033;-66
2022/03/27 00:08:46;;;;;;;27.90;6.32;;;1.70;99.90;;;;;;5054878;28;20446;-66
2022/03/27 00:11:24;;;;;;;26.25;5.57;;;1.70;99.90;;;;;;5055345;28;20059;-66
2022/03/27 00:13:50;;;;;;;26.08;4.18;;;1.70;99.90;;;;;;5055176;28;20079;-66
2022/03/27 00:16:16;;;;;;;33.85;4.55;;;1.70;99.90;;;;;;5054791;28;20047;-66
2022/03/27 00:18:41;;;;;;;32.63;6.45;;;1.60;99.90;;;;;;5054797;28;20021;-66
2022/03/27 00:21:08;;;;;;;39.58;6.93;;;1.70;99.90;;;;;;5054649;28;20029;-66
2022/03/27 00:23:34;;;;;;;23.65;4.40;;;1.60;99.90;;;;;;5054607;28;20100;-66
2022/03/27 00:26:00;;;;;;;23.60;4.43;;;1.60;99.90;;;;;;5054771;28;20096;-66
2022/03/27 00:28:31;;;;;;;22.13;5.97;;;1.60;99.90;;;;;;5054720;28;20031;-66
2022/03/27 00:31:00;;;;;;;32.00;5.53;;;1.50;99.90;;;;;;5054915;28;20029;-66
2022/03/27 00:33:27;;;;;;;41.63;5.68;;;1.40;99.90;;;;;;5054836;28;20068;-66
2022/03/27 00:35:57;;;;;;;24.95;5.65;;;1.40;99.90;;;;;;5054368;28;20017;-66
2022/03/27 00:38:23;;;;;;;27.48;5.30;;;1.30;99.90;;;;;;5054446;28;20384;-66
2022/03/27 00:40:50;;;;;;;39.90;6.93;;;1.30;99.90;;;;;;5054945;28;20077;-66
2022/03/27 00:43:17;;;;;;;26.63;5.55;;;1.20;99.90;;;;;;5054351;28;20029;-66
2022/03/27 00:45:43;;;;;;;24.55;4.55;;;1.20;99.90;;;;;;5054224;28;20532;-66
2022/03/27 00:48:09;;;;;;;32.15;6.05;;;1.20;99.90;;;;;;5054589;28;20106;-66
2022/03/27 00:50:35;;;;;;;35.42;6.28;;;1.10;99.90;;;;;;5054034;28;20043;-66
2022/03/27 00:53:01;;;;;;;27.60;6.15;;;1.10;99.90;;;;;;5054159;28;20021;-66
2022/03/27 00:55:26;;;;;;;26.35;6.28;;;1.10;99.90;;;;;;5054061;28;20049;-66
2022/03/27 00:57:52;;;;;;;69.38;8.98;;;1.00;99.90;;;;;;5053989;28;20017;-66
2022/03/27 01:00:34;;;;;;;46.55;7.68;;;1.00;99.90;;;;;;5053950;28;20472;-66
2022/03/27 01:03:00;;;;;;;39.17;7.75;;;1.00;99.90;;;;;;5054319;28;20024;-66
2022/03/27 01:05:25;;;;;;;37.47;7.53;;;1.00;99.90;;;;;;5053894;28;20083;-66
2022/03/27 01:07:51;;;;;;;30.65;6.15;;;0.90;99.90;;;;;;5054234;28;20431;-66
2022/03/27 01:10:23;;;;;;;35.95;6.22;;;0.90;99.90;;;;;;5053678;28;20060;-66
2022/03/27 01:12:49;;;;;;;49.83;6.22;;;0.90;99.90;;;;;;5054184;28;20025;-66
2022/03/27 01:15:39;;;;;;;44.60;7.28;;;1.00;99.90;;;;;;5053797;28;20021;-66
2022/03/27 01:18:06;;;;;;;115.90;10.48;;;1.00;99.90;;;;;;5053207;28;20036;-66
2022/03/27 01:20:34;;;;;;;50.88;8.68;;;1.00;99.90;;;;;;5053632;28;20021;-66
2022/03/27 01:23:01;;;;;;;56.15;7.93;;;1.00;99.90;;;;;;5053981;28;20472;-66
2022/03/27 01:25:26;;;;;;;38.38;7.43;;;1.00;99.90;;;;;;5035701;28;20397;-66
2022/03/27 01:27:52;;;;;;;33.50;5.97;;;1.00;99.90;;;;;;5035719;28;20021;-66
2022/03/27 01:30:18;;;;;;;34.08;6.85;;;1.00;99.90;;;;;;5053417;28;20025;-66
2022/03/27 01:32:43;;;;;;;38.40;6.70;;;0.90;99.90;;;;;;5053823;28;20495;-66
2022/03/27 01:35:12;;;;;;;23.90;4.75;;;1.00;99.90;;;;;;5053686;28;20036;-66
2022/03/27 01:37:38;;;;;;;23.15;5.60;;;1.10;99.90;;;;;;5053787;28;20025;-66
2022/03/27 01:40:05;;;;;;;17.98;5.22;;;1.10;99.90;;;;;;5053342;28;20040;-66
2022/03/27 01:42:30;;;;;;;32.53;6.03;;;1.10;99.90;;;;;;5035472;28;20025;-66
2022/03/27 01:44:56;;;;;;;15.02;5.35;;;1.00;99.90;;;;;;5053406;28;20392;-66
2022/03/27 01:47:21;;;;;;;27.23;5.47;;;0.90;99.90;;;;;;5053628;28;20091;-66
2022/03/27 01:49:47;;;;;;;22.13;5.50;;;0.80;99.90;;;;;;5053184;28;20032;-66
2022/03/27 01:52:15;;;;;;;30.90;5.50;;;0.80;99.90;;;;;;5053331;28;20116;-66
2022/03/27 01:54:41;;;;;;;20.35;5.25;;;0.70;99.90;;;;;;5053604;28;20029;-66
2022/03/27 01:57:06;;;;;;;21.35;5.18;;;0.60;99.90;;;;;;5053358;28;20035;-66
2022/03/27 01:59:33;;;;;;;16.08;5.28;;;0.60;99.90;;;;;;5053210;28;20485;-66
2022/03/27 02:01:59;;;;;;;12.65;5.13;;;0.60;99.90;;;;;;5053226;28;20028;-66
2022/03/27 02:04:25;;;;;;;16.20;5.47;;;0.60;99.90;;;;;;5053491;28;20024;-66
2022/03/27 02:06:50;;;;;;;21.30;6.25;;;0.70;99.90;;;;;;5053436;28;20029;-66
2022/03/27 02:09:16;;;;;;;34.75;7.97;;;0.70;99.90;;;;;;5053260;28;20025;-66
2022/03/27 02:11:42;;;;;;;35.38;7.65;;;0.70;99.90;;;;;;5054308;28;20036;-66
2022/03/27 02:14:09;;;;;;;37.03;7.82;;;0.70;99.90;;;;;;5053282;28;20100;-66
2022/03/27 02:16:35;;;;;;;38.65;9.32;;;0.70;99.90;;;;;;5053046;28;20021;-66
2022/03/27 02:19:01;;;;;;;31.88;8.18;;;0.60;99.90;;;;;;5053215;28;20032;-66
2022/03/27 02:21:26;;;;;;;20.42;6.80;;;0.50;99.90;;;;;;5053314;28;20028;-66
2022/03/27 02:23:52;;;;;;;20.42;7.07;;;0.40;99.90;;;;;;5052986;28;20400;-66
2022/03/27 02:26:17;;;;;;;20.55;6.78;;;0.40;99.90;;;;;;5053039;28;20392;-66
2022/03/27 02:28:43;;;;;;;18.60;6.47;;;0.40;99.90;;;;;;5053593;28;20025;-66
2022/03/27 02:31:09;;;;;;;14.65;6.45;;;0.40;99.90;;;;;;5056671;28;20021;-66
2022/03/27 02:33:35;;;;;;;17.02;5.07;;;0.30;99.90;;;;;;5057065;28;20080;-66
2022/03/27 02:36:02;;;;;;;13.95;6.13;;;0.30;99.90;;;;;;5056673;28;20035;-66
2022/03/27 02:38:28;;;;;;;36.45;5.80;;;0.30;99.90;;;;;;5056663;28;20017;-66
2022/03/27 02:40:53;;;;;;;17.17;4.93;;;0.30;99.90;;;;;;5056916;28;20056;-66
2022/03/27 02:43:19;;;;;;;27.10;6.07;;;0.30;99.90;;;;;;5056521;28;20025;-66
2022/03/27 02:45:44;;;;;;;33.72;7.50;;;0.40;99.90;;;;;;5057059;28;20028;-66
2022/03/27 02:48:10;;;;;;;24.45;7.03;;;0.30;99.90;;;;;;5056488;28;20025;-67
2022/03/27 02:50:39;;;;;;;33.53;7.47;;;0.30;99.90;;;;;;5056321;28;20112;-67
2022/03/27 02:53:04;;;;;;;47.58;8.95;;;0.30;99.90;;;;;;5056400;28;20110;-67
2022/03/27 02:55:30;;;;;;;25.02;7.63;;;0.30;99.90;;;;;;5056667;28;20465;-66
2022/03/27 02:57:56;;;;;;;26.73;7.13;;;0.20;99.90;;;;;;5056268;28;20028;-67
2022/03/27 03:00:22;;;;;;;33.05;6.97;;;0.20;99.90;;;;;;5056350;28;20048;-67
2022/03/27 03:02:48;;;;;;;27.20;9.07;;;0.20;99.90;;;;;;5056240;28;20091;-67
2022/03/27 03:05:14;;;;;;;30.38;7.35;;;0.20;99.90;;;;;;5056165;28;20031;-67
2022/03/27 03:07:43;;;;;;;13.82;5.93;;;0.10;99.90;;;;;;5056474;28;20056;-67
2022/03/27 03:10:10;;;;;;;14.23;5.25;;;0.20;99.90;;;;;;5056020;28;20481;-67
2022/03/27 03:12:36;;;;;;;9.45;3.90;;;0.10;99.90;;;;;;5055991;28;20021;-67
2022/03/27 03:15:02;;;;;;;14.27;4.95;;;0.10;99.90;;;;;;5056312;28;20377;-67
2022/03/27 03:17:28;;;;;;;17.70;5.90;;;0.10;99.90;;;;;;5055863;28;20485;-67
2022/03/27 03:19:54;;;;;;;15.32;6.05;;;0.10;99.90;;;;;;5055900;28;20025;-67
2022/03/27 03:22:19;;;;;;;11.07;5.53;;;0.10;99.90;;;;;;5056124;28;20389;-67
2022/03/27 03:24:46;;;;;;;28.55;6.47;;;0.10;99.90;;;;;;5055811;28;20488;-67
2022/03/27 03:27:12;;;;;;;13.25;5.68;;;0.00;99.90;;;;;;5055761;28;20060;-67
2022/03/27 03:29:38;;;;;;;11.00;4.72;;;0.00;99.90;;;;;;5055860;28;20025;-67
2022/03/27 03:32:04;;;;;;;11.52;4.65;;;0.00;99.90;;;;;;5055709;28;20040;-67
2022/03/27 03:34:30;;;;;;;26.90;7.72;;;0.00;99.90;;;;;;5055859;28;20032;-67
2022/03/27 03:36:56;;;;;;;14.05;5.53;;;0.10;99.90;;;;;;5055634;28;20045;-67
2022/03/27 03:39:25;;;;;;;11.98;4.68;;;0.10;99.90;;;;;;5055028;28;20021;-66
2022/03/27 03:41:50;;;;;;;32.25;7.30;;;0.00;99.90;;;;;;5055535;28;20044;-65
2022/03/27 03:44:17;;;;;;;23.67;7.43;;;0.00;99.90;;;;;;5055566;28;20029;-67
2022/03/27 03:46:43;;;;;;;19.63;6.13;;;0.00;99.90;;;;;;5055396;28;20032;-67
2022/03/27 03:49:09;;;;;;;21.10;6.20;;;-0.10;99.90;;;;;;5055607;28;20025;-67
2022/03/27 03:51:35;;;;;;;40.45;8.90;;;-0.10;99.90;;;;;;5055245;28;20037;-67
2022/03/27 03:54:07;;;;;;;22.55;6.43;;;-0.10;99.90;;;;;;5055234;28;20034;-66
2022/03/27 03:56:33;;;;;;;12.50;4.70;;;-0.20;99.90;;;;;;5055520;28;20373;-67
2022/03/27 03:58:59;;;;;;;25.58;5.88;;;-0.10;99.90;;;;;;5055294;28;20025;-67
2022/03/27 04:01:25;;;;;;;23.42;5.45;;;-0.10;99.90;;;;;;5055134;28;20048;-67
2022/03/27 04:03:50;;;;;;;11.50;4.00;;;-0.10;99.90;;;;;;5055548;28;20048;-67
2022/03/27 04:06:16;;;;;;;10.63;3.88;;;-0.10;99.90;;;;;;5055019;28;20032;-67
2022/03/27 04:08:41;;;;;;;19.52;4.35;;;-0.10;99.90;;;;;;5054842;28;20032;-67
2022/03/27 04:11:07;;;;;;;10.52;3.80;;;-0.10;99.90;;;;;;5055403;28;20491;-67
2022/03/27 04:13:33;;;;;;;13.18;4.93;;;-0.10;99.90;;;;;;5054909;28;20094;-67
2022/03/27 04:16:00;;;;;;;10.35;4.25;;;-0.10;99.90;;;;;;5054831;28;20021;-67
2022/03/27 04:18:25;;;;;;;9.35;3.60;;;-0.10;99.90;;;;;;5054688;28;20074;-67
2022/03/27 04:20:51;;;;;;;18.52;3.92;;;-0.20;99.90;;;;;;5054812;28;20029;-68
2022/03/27 04:23:17;;;;;;;5.78;3.30;;;-0.20;99.90;;;;;;5054995;28;20401;-67
2022/03/27 04:25:43;;;;;;;5.55;3.78;;;-0.20;99.90;;;;;;5054873;28;20029;-67
2022/03/27 04:28:10;;;;;;;6.30;4.65;;;-0.30;99.90;;;;;;5054618;28;20024;-67
2022/03/27 04:30:37;;;;;;;5.70;4.25;;;-0.30;99.90;;;;;;5054376;28;20081;-67
2022/03/27 04:33:03;;;;;;;7.20;4.22;;;-0.30;99.90;;;;;;5054603;28;20022;-67
2022/03/27 04:35:29;;;;;;;7.75;4.35;;;-0.30;99.90;;;;;;5054662;28;20032;-67
2022/03/27 04:37:54;;;;;;;9.80;4.68;;;-0.40;99.90;;;;;;5054722;28;20021;-67
2022/03/27 04:40:20;;;;;;;19.13;4.53;;;-0.30;99.90;;;;;;5054237;28;20044;-67
2022/03/27 04:42:45;;;;;;;16.83;4.65;;;-0.30;99.90;;;;;;5054581;28;20476;-67
2022/03/27 04:45:11;;;;;;;6.30;5.07;;;-0.30;99.90;;;;;;5054397;28;20484;-67
2022/03/27 04:47:38;;;;;;;8.70;5.82;;;-0.20;99.90;;;;;;5054222;28;20104;-67
2022/03/27 04:50:04;;;;;;;9.75;5.00;;;-0.20;99.90;;;;;;5054320;28;20412;-67
2022/03/27 04:52:30;;;;;;;7.63;4.82;;;-0.30;99.90;;;;;;5053661;28;20060;-67
2022/03/27 04:54:56;;;;;;;15.00;6.38;;;-0.30;99.90;;;;;;5054456;28;20053;-67
2022/03/27 04:57:22;;;;;;;8.10;6.28;;;-0.30;99.90;;;;;;5054440;28;20063;-67
2022/03/27 04:59:48;;;;;;;9.55;5.88;;;-0.30;99.90;;;;;;5053964;28;20017;-67
2022/03/27 05:02:14;;;;;;;12.43;6.07;;;-0.20;99.90;;;;;;5053965;28;20029;-67
2022/03/27 05:04:41;;;;;;;9.80;6.65;;;-0.20;99.90;;;;;;5054225;28;20107;-67
2022/03/27 05:07:07;;;;;;;24.40;7.57;;;-0.20;99.90;;;;;;5053890;28;20029;-67
2022/03/27 05:09:32;;;;;;;13.38;7.45;;;-0.10;99.90;;;;;;5053767;28;20036;-67
2022/03/27 05:11:58;;;;;;;19.08;7.30;;;-0.10;99.90;;;;;;5053717;28;20119;-67
2022/03/27 05:14:23;;;;;;;25.00;7.93;;;-0.10;99.90;;;;;;5054232;28;20025;-67
2022/03/27 05:16:49;;;;;;;7.57;4.90;;;-0.10;99.90;;;;;;5053975;28;20020;-67
2022/03/27 05:19:15;;;;;;;9.70;5.63;;;0.00;99.90;;;;;;5053567;28;20021;-67
2022/03/27 05:21:40;;;;;;;28.88;6.32;;;0.00;99.90;;;;;;5053639;28;20102;-67
2022/03/27 05:24:08;;;;;;;12.45;5.20;;;0.10;99.90;;;;;;5054023;28;20108;-67
2022/03/27 05:26:35;;;;;;;10.45;5.68;;;0.10;99.90;;;;;;5053648;28;20053;-67
2022/03/27 05:29:02;;;;;;;7.30;5.05;;;0.10;99.90;;;;;;5053537;28;20025;-67
2022/03/27 05:31:28;;;;;;;29.55;5.90;;;0.10;99.90;;;;;;5053963;28;20024;-67
2022/03/27 05:33:53;;;;;;;35.38;6.22;;;0.20;99.90;;;;;;5054063;28;20021;-67
2022/03/27 05:36:19;;;;;;;21.52;6.68;;;0.20;99.90;;;;;;5053495;28;20025;-67
2022/03/27 05:38:44;;;;;;;19.10;5.93;;;0.20;99.90;;;;;;5053292;28;20435;-67
2022/03/27 05:41:10;;;;;;;8.73;5.93;;;0.20;99.90;;;;;;5053567;28;20474;-67
2022/03/27 05:43:36;;;;;;;12.38;6.70;;;0.20;99.90;;;;;;5053491;28;20021;-67
2022/03/27 05:46:02;;;;;;;22.92;7.57;;;0.30;99.90;;;;;;5053662;28;20033;-67
2022/03/27 05:48:28;;;;;;;21.73;6.78;;;0.40;99.90;;;;;;5053300;28;20032;-67
2022/03/27 05:50:54;;;;;;;18.20;6.65;;;0.50;99.90;;;;;;5053267;28;20025;-67
2022/03/27 05:53:19;;;;;;;16.58;7.55;;;0.50;99.90;;;;;;5053266;28;20029;-67
2022/03/27 05:55:47;;;;;;;15.48;5.18;;;0.60;99.90;;;;;;5053258;28;20523;-67
2022/03/27 05:58:13;;;;;;;9.32;5.70;;;0.60;99.90;;;;;;5053445;28;20028;-67
2022/03/27 06:00:39;;;;;;;8.82;6.43;;;0.70;99.90;;;;;;5053822;28;20021;-67
2022/03/27 06:03:05;;;;;;;48.08;7.88;;;0.70;99.90;;;;;;5054681;28;20112;-68
2022/03/27 06:05:31;;;;;;;16.17;6.68;;;0.80;99.90;;;;;;5057306;28;20452;-67
2022/03/27 06:07:58;;;;;;;12.50;6.43;;;0.90;99.90;;;;;;5057575;28;20496;-67
2022/03/27 06:10:29;;;;;;;9.13;6.35;;;1.00;99.90;;;;;;5057318;28;20523;-67
2022/03/27 06:12:55;;;;;;;11.93;6.60;;;1.10;99.90;;;;;;5039878;28;20079;-67
2022/03/27 06:15:21;;;;;;;31.27;6.20;;;1.20;99.90;;;;;;5057360;28;20028;-67
2022/03/27 06:17:48;;;;;;;34.03;6.03;;;1.20;99.90;;;;;;5057558;28;20028;-67
2022/03/27 06:20:19;;;;;;;16.63;5.85;;;1.10;99.90;;;;;;5056988;28;20025;-67
2022/03/27 06:22:46;;;;;;;9.77;6.03;;;1.10;99.90;;;;;;5057136;28;20025;-67
2022/03/27 06:25:14;;;;;;;8.98;5.57;;;1.10;99.90;;;;;;5057209;28;20063;-67
2022/03/27 06:27:40;;;;;;;25.13;7.90;;;1.20;99.90;;;;;;5056881;28;20547;-67
2022/03/27 06:30:11;;;;;;;27.15;8.35;;;1.30;99.90;;;;;;5057052;28;20452;-67
2022/03/27 06:32:37;;;;;;;34.30;8.82;;;1.50;99.90;;;;;;5057398;28;20013;-67
2022/03/27 06:35:07;;;;;;;25.77;7.70;;;1.60;99.90;;;;;;5056786;28;20089;-67
2022/03/27 06:37:33;;;;;;;28.13;8.52;;;1.70;99.90;;;;;;5056715;28;20020;-67
2022/03/27 06:39:59;;;;;;;25.85;8.63;;;1.80;99.90;;;;;;5056468;28;20116;-67
2022/03/27 06:42:27;;;;;;;27.20;9.90;;;1.90;99.90;;;;;;5056950;28;20021;-67
2022/03/27 06:44:54;;;;;;;39.78;11.20;;;2.00;99.90;;;;;;5056744;28;20021;-67
2022/03/27 06:47:21;;;;;;;36.33;11.23;;;2.10;99.90;;;;;;5056552;28;20105;-67
2022/03/27 06:49:48;;;;;;;34.25;10.57;;;2.30;99.90;;;;;;5056399;28;20025;-67
2022/03/27 06:52:15;;;;;;;37.83;10.68;;;2.40;99.90;;;;;;5056295;28;20048;-67
2022/03/27 06:54:41;;;;;;;34.90;10.38;;;2.60;99.90;;;;;;5056367;28;20033;-67
2022/03/27 06:57:06;;;;;;;35.83;12.13;;;2.70;99.90;;;;;;5056393;28;20380;-66
2022/03/27 07:03:01;;;;;;;49.95;11.68;;;2.90;99.90;;;;;;5056717;28;20076;-68
2022/03/27 07:05:03;;;;;;;49.33;13.70;;;3.40;99.90;;;;;;5056310;28;20511;-69
2022/03/27 07:07:29;;;;;;;49.35;11.65;;;3.60;99.90;;;;;;5056191;28;20044;-69
2022/03/27 07:09:54;;;;;;;44.25;11.82;;;3.80;99.90;;;;;;5056639;28;20060;-69
2022/03/27 07:12:20;;;;;;;49.90;11.23;;;3.90;99.90;;;;;;5056066;28;20056;-68
2022/03/27 07:14:46;;;;;;;65.32;12.90;;;4.10;99.90;;;;;;5055153;28;20023;-69
2022/03/27 07:17:15;;;;;;;40.58;12.18;;;4.30;99.90;;;;;;5056658;28;20021;-68
2022/03/27 07:19:41;;;;;;;48.90;11.90;;;4.50;99.90;;;;;;5056086;28;20025;-69
2022/03/27 07:22:06;;;;;;;58.70;12.75;;;4.70;99.90;;;;;;5056205;28;20071;-68
2022/03/27 07:24:32;;;;;;;47.45;12.35;;;4.80;99.90;;;;;;5056543;28;20469;-68
2022/03/27 07:26:57;;;;;;;39.90;11.18;;;4.80;99.90;;;;;;5055866;28;20032;-68
2022/03/27 07:29:23;;;;;;;57.15;10.40;;;5.00;99.90;;;;;;5055804;28;20032;-68
2022/03/27 07:31:49;;;;;;;69.00;12.05;;;5.20;99.90;;;;;;5056288;28;20025;-69
2022/03/27 07:34:16;;;;;;;55.17;10.73;;;5.20;99.90;;;;;;5055683;28;20040;-69
2022/03/27 07:36:42;;;;;;;48.78;11.38;;;5.30;99.90;;;;;;5055698;28;20021;-68
2022/03/27 07:39:09;;;;;;;36.53;10.50;;;5.40;99.90;;;;;;5055324;28;20029;-69
2022/03/27 07:41:35;;;;;;;41.40;8.80;;;5.40;99.90;;;;;;5055515;28;20029;-68
2022/03/27 07:44:00;;;;;;;52.15;9.18;;;5.50;99.90;;;;;;5055472;28;20025;-68
2022/03/27 07:46:26;;;;;;;47.50;9.02;;;5.60;99.90;;;;;;5055365;28;20021;-68
2022/03/27 07:48:52;;;;;;;47.63;9.63;;;5.90;99.90;;;;;;5055549;28;20025;-68
2022/03/27 07:51:17;;;;;;;43.72;7.80;;;6.10;99.90;;;;;;5055251;28;20033;-68
2022/03/27 07:53:43;;;;;;;47.13;9.15;;;6.20;99.90;;;;;;5055229;28;20499;-67
2022/03/27 07:56:09;;;;;;;48.78;10.45;;;6.40;99.90;;;;;;5055136;28;20453;-68
2022/03/27 07:58:34;;;;;;;45.85;8.18;;;6.50;99.90;;;;;;5055229;28;20086;-69
2022/03/27 08:01:00;;;;;;;41.17;9.68;;;6.60;99.90;;;;;;5055164;28;20098;-69
2022/03/27 08:03:26;;;;;;;32.67;6.80;;;6.80;99.90;;;;;;5055403;28;20025;-68
2022/03/27 08:05:51;;;;;;;41.03;7.35;;;7.10;99.90;;;;;;5054944;28;20485;-68
2022/03/27 08:08:17;;;;;;;33.15;7.07;;;7.20;99.90;;;;;;5054850;28;20025;-68
2022/03/27 08:10:43;;;;;;;46.08;7.50;;;7.30;99.90;;;;;;5055356;28;20039;-68
2022/03/27 08:13:09;;;;;;;39.40;7.15;;;7.40;99.90;;;;;;5055162;28;20377;-68
2022/03/27 08:15:35;;;;;;;33.85;6.78;;;7.50;99.90;;;;;;5054847;28;20021;-68
2022/03/27 08:18:00;;;;;;;42.30;7.20;;;7.60;99.90;;;;;;5054787;28;20547;-68
2022/03/27 08:20:27;;;;;;;51.20;8.30;;;7.80;99.90;;;;;;5054871;28;20029;-68
2022/03/27 08:22:53;;;;;;;31.15;6.70;;;7.90;99.90;;;;;;5054872;28;20053;-68
2022/03/27 08:28:06;;;;;;;42.92;7.90;;;8.00;99.90;;;;;;5055222;28;20040;-68
2022/03/27 08:30:32;;;;;;;39.28;9.30;;;8.10;99.90;;;;;;5054382;28;20476;-68
2022/03/27 08:32:57;;;;;;;33.70;6.63;;;8.00;99.90;;;;;;5054734;28;20017;-68
2022/03/27 08:35:23;;;;;;;49.97;8.30;;;8.10;99.90;;;;;;5054733;28;20032;-68
2022/03/27 08:37:48;;;;;;;37.80;7.63;;;8.40;99.90;;;;;;5054434;28;20074;-68
2022/03/27 08:40:17;;;;;;;37.67;7.80;;;8.50;99.90;;;;;;5054244;28;20465;-68
2022/03/27 08:42:44;;;;;;;44.40;7.00;;;8.60;99.90;;;;;;5054311;28;20017;-68
2022/03/27 08:45:10;;;;;;;41.70;8.02;;;8.70;99.90;;;;;;5054273;28;20025;-68
2022/03/27 08:47:38;;;;;;;45.95;7.72;;;8.90;99.90;;;;;;5054442;28;20017;-68
2022/03/27 08:50:52;;;;;;;42.35;8.77;;;9.00;99.90;;;;;;5054046;28;20093;-68
2022/03/27 08:53:28;;;;;;;42.65;9.32;;;9.00;99.90;;;;;;5045504;28;20044;-68
2022/03/27 08:56:00;;;;;;;42.25;7.70;;;9.20;99.90;;;;;;5054053;28;20087;-68
2022/03/27 08:58:36;;;;;;;40.38;8.00;;;9.50;99.90;;;;;;5054153;28;20035;-68
2022/03/27 09:01:04;;;;;;;47.28;7.78;;;9.60;99.90;;;;;;5054290;28;20036;-68
2022/03/27 09:03:30;;;;;;;48.72;7.25;;;9.70;99.90;;;;;;5054135;28;20029;-68
2022/03/27 09:05:56;;;;;;;39.05;6.90;;;9.80;99.90;;;;;;5053835;28;20489;-68
2022/03/27 09:08:22;;;;;;;39.10;7.30;;;9.90;99.90;;;;;;5053750;28;20033;-68
2022/03/27 09:10:48;;;;;;;44.83;6.22;;;10.00;99.90;;;;;;5053997;28;20028;-68
2022/03/27 09:13:18;;;;;;;35.28;6.70;;;10.10;99.90;;;;;;5054323;28;20029;-67
2022/03/27 09:15:45;;;;;;;47.85;8.57;;;10.40;99.90;;;;;;5054016;28;20020;-68
2022/03/27 09:18:12;;;;;;;46.40;7.65;;;10.60;99.90;;;;;;5053616;28;20071;-68
2022/03/27 09:20:47;;;;;;;45.72;7.47;;;10.80;99.90;;;;;;5053980;28;20033;-68
2022/03/27 09:23:21;;;;;;;36.65;7.00;;;10.80;99.90;;;;;;5054027;28;20021;-67
2022/03/27 09:25:57;;;;;;;42.70;6.80;;;10.80;99.90;;;;;;5053860;28;20067;-68
2022/03/27 09:28:25;;;;;;;62.00;7.75;;;11.00;99.90;;;;;;5053789;28;20044;-68
2022/03/27 09:30:52;;;;;;;42.00;8.15;;;11.20;99.90;;;;;;5053663;28;20021;-68
2022/03/27 09:33:31;;;;;;;41.80;7.05;;;11.50;99.90;;;;;;5053707;28;20071;-67
2022/03/27 09:36:04;;;;;;;37.38;6.18;;;11.70;99.90;;;;;;5053440;28;20021;-68
2022/03/27 09:38:29;;;;;;;33.55;6.00;;;11.70;99.90;;;;;;5052503;28;20027;-67
2022/03/27 09:40:55;;;;;;;30.55;5.47;;;11.70;99.90;;;;;;5054086;28;20041;-66
2022/03/27 09:43:22;;;;;;;34.60;5.55;;;11.60;99.90;;;;;;5053299;28;20614;-66
2022/03/27 09:46:02;;;;;;;40.08;6.53;;;11.80;99.90;;;;;;5053261;28;20021;-66
2022/03/27 09:48:28;;;;;;;34.58;6.03;;;12.00;99.90;;;;;;5053450;28;20021;-66
2022/03/27 09:50:58;;;;;;;31.33;6.10;;;12.00;99.90;;;;;;5053089;28;20398;-66
2022/03/27 09:53:29;;;;;;;30.58;6.93;;;12.20;99.90;;;;;;5053321;28;20032;-66
2022/03/27 09:55:58;;;;;;;35.40;6.00;;;12.20;99.90;;;;;;5053025;28;20044;-67
2022/03/27 09:58:52;;;;;;;38.97;6.82;;;12.20;99.90;;;;;;5053328;28;20051;-67
2022/03/27 10:01:22;;;;;;;33.70;5.90;;;12.30;99.90;;;;;;5031820;28;20044;-66
2022/03/27 10:03:57;;;;;;;34.42;6.38;;;12.30;99.90;;;;;;5053023;28;20508;-66
2022/03/27 10:06:42;;;;;;;30.55;5.53;;;12.50;99.90;;;;;;5053102;28;20025;-65
2022/03/27 10:09:10;;;;;;;36.75;5.05;;;12.40;99.90;;;;;;5053006;28;20029;-66
2022/03/27 10:11:38;;;;;;;45.53;6.22;;;12.50;99.90;;;;;;5053537;28;20029;-66
2022/03/27 10:14:05;;;;;;;31.83;5.53;;;12.60;99.90;;;;;;5053009;28;20037;-67
2022/03/27 10:16:36;;;;;;;27.27;5.32;;;12.50;99.90;;;;;;5053438;28;20112;-66
2022/03/27 10:19:11;;;;;;;42.15;5.72;;;12.50;99.90;;;;;;5053192;28;20032;-67
2022/03/27 10:21:38;;;;;;;27.40;5.63;;;12.50;99.90;;;;;;5053278;28;20477;-67
2022/03/27 10:24:18;;;;;;;14.50;3.88;;;12.50;99.90;;;;;;5052972;28;20033;-67
2022/03/27 10:26:45;;;;;;;21.40;4.15;;;12.80;99.90;;;;;;5053006;28;20025;-66
2022/03/27 10:29:13;;;;;;;28.77;5.00;;;12.90;99.90;;;;;;5052983;28;20039;-68
2022/03/27 10:31:39;;;;;;;35.10;6.40;;;12.90;99.90;;;;;;5053036;28;20056;-67
2022/03/27 10:34:07;;;;;;;24.73;4.90;;;12.90;99.90;;;;;;5053061;28;20070;-67
2022/03/27 10:36:58;;;;;;;25.17;5.47;;;13.00;99.90;;;;;;5053054;28;20021;-66
2022/03/27 10:40:01;;;;;;;24.25;4.18;;;12.80;99.90;;;;;;5052569;28;20036;-66
2022/03/27 10:42:46;;;;;;;28.63;5.38;;;12.80;99.90;;;;;;5053323;28;20029;-66
2022/03/27 10:45:18;;;;;;;33.28;6.15;;;13.00;99.90;;;;;;5052968;28;20035;-66
2022/03/27 10:48:11;;;;;;;29.48;4.75;;;12.90;99.90;;;;;;5052670;28;20025;-66
2022/03/27 10:50:48;;;;;;;33.28;4.18;;;12.90;99.90;;;;;;5054585;28;20439;-66
2022/03/27 10:53:17;;;;;;;33.60;5.82;;;13.00;99.90;;;;;;5056244;28;20104;-65
2022/03/27 10:55:45;;;;;;;32.75;6.22;;;13.00;99.90;;;;;;5056482;28;20029;-67
2022/03/27 10:58:39;;;;;;;38.10;5.47;;;13.00;99.90;;;;;;5056519;28;20079;-67
2022/03/27 11:01:39;;;;;;;31.15;4.85;;;13.20;99.90;;;;;;5056436;28;20032;-67
2022/03/27 11:04:12;;;;;;;27.77;4.72;;;13.20;99.90;;;;;;5001228;28;20497;-67
2022/03/27 11:06:43;;;;;;;18.98;3.83;;;13.40;99.90;;;;;;5056020;28;20021;-67
2022/03/27 11:09:29;;;;;;;28.58;4.78;;;13.70;99.90;;;;;;5056252;28;20100;-67
2022/03/27 11:11:54;;;;;;;24.80;4.97;;;13.80;99.90;;;;;;5056173;28;20049;-67
2022/03/27 11:14:58;;;;;;;22.20;4.57;;;14.00;99.90;;;;;;5056204;28;20078;-67
2022/03/27 11:17:49;;;;;;;24.23;4.43;;;14.20;99.90;;;;;;5055962;28;20052;-67
2022/03/27 11:20:20;;;;;;;15.80;4.18;;;14.40;99.90;;;;;;5055766;28;20389;-67
2022/03/27 11:22:53;;;;;;;20.27;4.13;;;14.30;99.90;;;;;;5055715;28;20028;-67
2022/03/27 11:25:33;;;;;;;26.73;3.88;;;14.20;99.90;;;;;;5055768;28;20021;-67
2022/03/27 11:28:06;;;;;;;16.88;3.22;;;14.20;99.90;;;;;;5056017;28;20501;-67
2022/03/27 11:30:33;;;;;;;20.48;3.85;;;14.10;99.90;;;;;;5055519;28;20075;-67
2022/03/27 11:33:20;;;;;;;25.77;4.13;;;14.30;99.90;;;;;;5055722;28;20017;-67
2022/03/27 11:36:01;;;;;;;20.05;3.85;;;14.40;99.90;;;;;;5055489;28;20100;-67
2022/03/27 11:38:32;;;;;;;22.00;5.47;;;14.30;99.90;;;;;;5055473;28;20469;-67
2022/03/27 11:41:30;;;;;;;18.70;4.13;;;14.40;99.90;;;;;;5055722;28;20436;-67
2022/03/27 11:44:16;;;;;;;16.50;4.03;;;14.60;99.90;;;;;;5056012;28;20071;-67
2022/03/27 11:46:44;;;;;;;16.58;3.78;;;14.40;99.90;;;;;;5055052;28;20040;-67
2022/03/27 11:49:11;;;;;;;14.18;3.45;;;14.40;99.90;;;;;;5055222;28;20064;-67
2022/03/27 11:51:37;;;;;;;25.20;4.25;;;14.40;99.90;;;;;;5055153;28;20435;-67
2022/03/27 11:54:21;;;;;;;16.70;3.78;;;14.70;99.90;;;;;;5055247;28;20119;-67
2022/03/27 11:56:54;;;;;;;13.05;3.28;;;14.90;99.90;;;;;;5055151;28;20025;-67
2022/03/27 11:59:20;;;;;;;16.35;3.72;;;15.00;99.90;;;;;;5054969;28;20032;-67
2022/03/27 12:02:01;;;;;;;26.23;3.78;;;15.30;99.90;;;;;;5055007;28;20029;-67
2022/03/27 12:04:27;;;;;;;19.67;3.72;;;15.30;99.90;;;;;;5055211;28;20033;-67
2022/03/27 12:06:58;;;;;;;18.40;3.63;;;15.30;99.90;;;;;;5054985;28;20036;-67
2022/03/27 12:09:32;;;;;;;14.63;3.90;;;15.30;99.90;;;;;;5055114;28;20044;-67
2022/03/27 12:12:14;;;;;;;19.08;3.70;;;15.30;99.90;;;;;;5054855;28;20017;-67
2022/03/27 12:15:04;;;;;;;16.67;3.40;;;15.50;99.90;;;;;;5055025;28;20024;-67
2022/03/27 12:17:32;;;;;;;20.23;3.72;;;15.50;99.90;;;;;;5055150;28;20020;-67
2022/03/27 12:20:01;;;;;;;16.13;2.83;;;15.20;99.90;;;;;;5054928;28;20388;-67
2022/03/27 12:22:41;;;;;;;19.58;3.25;;;14.90;99.90;;;;;;5054983;28;20025;-67
2022/03/27 12:25:30;;;;;;;13.50;2.85;;;15.10;99.90;;;;;;5055254;28;20028;-67
2022/03/27 12:30:48;;;;;;;8.07;2.63;;;14.90;99.90;;;;;;5054952;28;20078;-67
2022/03/27 12:33:17;;;;;;;5.85;2.40;;;14.80;99.90;;;;;;5054794;28;20017;-67
2022/03/27 12:35:42;;;;;;;3.00;2.35;;;14.60;99.90;;;;;;5054367;28;20017;-67
2022/03/27 12:38:08;;;;;;;5.88;1.77;;;14.50;99.90;;;;;;5054595;28;20028;-67
2022/03/27 12:40:44;;;;;;;4.57;1.35;;;14.70;99.90;;;;;;5054078;28;20037;-67
2022/03/27 12:43:12;;;;;;;2.85;1.48;;;14.80;99.90;;;;;;5054265;28;20028;-67
2022/03/27 12:45:40;;;;;;;1.38;1.27;;;14.70;99.90;;;;;;5054557;28;20052;-67
2022/03/27 12:48:11;;;;;;;1.50;1.10;;;14.70;99.90;;;;;;5054188;28;20021;-67
2022/03/27 12:50:39;;;;;;;1.50;0.80;;;14.30;99.90;;;;;;5053938;28;20021;-67
2022/03/27 12:53:11;;;;;;;2.20;1.05;;;14.40;99.90;;;;;;5054358;28;20025;-67
2022/03/27 12:55:39;;;;;;;1.17;0.70;;;14.70;99.90;;;;;;5054415;28;20017;-67
2022/03/27 12:58:05;;;;;;;0.80;0.70;;;14.50;99.90;;;;;;5053939;28;20074;-67
2022/03/27 13:00:32;;;;;;;1.80;0.80;;;14.80;99.90;;;;;;5054160;28;20025;-67